createdAt,value
2019-03-10T00:00:21.011Z,11.64
2019-03-10T00:01:21.006Z,11.64
2019-03-10T00:02:20.984Z,11.61
2019-03-10T00:03:20.998Z,11.62
2019-03-10T00:04:21.014Z,11.59
2019-03-10T00:05:20.992Z,11.62
2019-03-10T00:06:21.009Z,11.58
2019-03-10T00:07:20.976Z,11.55
2019-03-10T00:08:20.998Z,11.56
2019-03-10T00:09:21.037Z,11.54
2019-03-10T00:10:20.981Z,11.55
2019-03-10T00:11:20.997Z,11.54
2019-03-10T00:12:21.003Z,11.55
2019-03-10T00:13:20.990Z,11.54
2019-03-10T00:14:21.203Z,11.55
2019-03-10T00:15:20.970Z,11.54
2019-03-10T00:16:21.043Z,11.51
2019-03-10T00:17:20.983Z,11.51
2019-03-10T00:18:20.982Z,11.49
2019-03-10T00:19:20.997Z,11.49
2019-03-10T00:20:20.959Z,11.48
2019-03-10T00:21:20.974Z,11.48
2019-03-10T00:22:20.972Z,11.48
2019-03-10T00:23:20.969Z,11.48
2019-03-10T00:24:20.961Z,11.49
2019-03-10T00:25:21.006Z,11.49
2019-03-10T00:26:21.368Z,11.48
2019-03-10T00:27:20.988Z,11.44
2019-03-10T00:28:20.973Z,11.47
2019-03-10T00:29:20.956Z,11.45
2019-03-10T00:30:20.980Z,11.48
2019-03-10T00:31:20.947Z,11.47
2019-03-10T00:32:20.952Z,11.44
2019-03-10T00:33:20.983Z,11.44
2019-03-10T00:34:20.938Z,11.41
2019-03-10T00:35:20.944Z,11.42
2019-03-10T00:36:21.254Z,11.39
2019-03-10T00:37:20.952Z,11.38
2019-03-10T00:38:21.067Z,11.39
2019-03-10T00:39:20.946Z,11.37
2019-03-10T00:40:20.951Z,11.38
2019-03-10T00:41:20.942Z,11.34
2019-03-10T00:42:20.971Z,11.38
2019-03-10T00:43:20.932Z,11.34
2019-03-10T00:44:20.966Z,11.34
2019-03-10T00:45:20.960Z,11.35
2019-03-10T00:46:20.927Z,11.34
2019-03-10T00:47:20.938Z,11.32
2019-03-10T00:48:20.933Z,11.31
2019-03-10T00:49:20.939Z,11.32
2019-03-10T00:50:20.946Z,11.27
2019-03-10T00:51:20.953Z,11.3
2019-03-10T00:52:20.929Z,11.3
2019-03-10T00:53:20.934Z,11.25
2019-03-10T00:54:20.915Z,11.31
2019-03-10T00:55:20.936Z,11.24
2019-03-10T00:56:20.927Z,11.3
2019-03-10T00:57:20.930Z,11.28
2019-03-10T00:58:21.863Z,11.25
2019-03-10T00:59:20.932Z,11.25
2019-03-10T01:00:21.038Z,11.27
2019-03-10T01:01:20.920Z,11.27
2019-03-10T01:02:20.907Z,11.24
2019-03-10T01:03:20.911Z,11.24
2019-03-10T01:04:20.902Z,11.24
2019-03-10T01:05:20.947Z,11.25
2019-03-10T01:06:20.928Z,11.24
2019-03-10T01:07:20.930Z,11.25
2019-03-10T01:08:22.177Z,11.24
2019-03-10T01:09:20.921Z,11.24
2019-03-10T01:10:20.902Z,11.27
2019-03-10T01:11:20.899Z,11.21
2019-03-10T01:12:20.904Z,11.24
2019-03-10T01:13:20.915Z,11.21
2019-03-10T01:14:20.997Z,11.21
2019-03-10T01:15:20.908Z,11.21
2019-03-10T01:16:20.904Z,11.21
2019-03-10T01:17:20.943Z,11.22
2019-03-10T01:18:20.900Z,11.22
2019-03-10T01:19:20.902Z,11.25
2019-03-10T01:20:20.909Z,11.24
2019-03-10T01:21:20.945Z,11.27
2019-03-10T01:22:20.889Z,11.24
2019-03-10T01:23:20.896Z,11.25
2019-03-10T01:24:20.898Z,11.24
2019-03-10T01:25:20.903Z,11.27
2019-03-10T01:26:20.904Z,11.25
2019-03-10T01:27:20.936Z,11.24
2019-03-10T01:28:20.911Z,11.21
2019-03-10T01:29:20.894Z,11.22
2019-03-10T01:30:20.900Z,11.22
2019-03-10T01:31:20.892Z,11.22
2019-03-10T01:32:20.888Z,11.24
2019-03-10T01:33:20.895Z,11.27
2019-03-10T01:34:20.877Z,11.24
2019-03-10T01:35:20.875Z,11.25
2019-03-10T01:36:20.865Z,11.25
2019-03-10T01:37:20.889Z,11.24
2019-03-10T01:38:20.872Z,11.25
2019-03-10T01:39:20.916Z,11.24
2019-03-10T01:40:20.875Z,11.27
2019-03-10T01:41:20.875Z,11.27
2019-03-10T01:42:21.163Z,11.24
2019-03-10T01:43:20.859Z,11.24
2019-03-10T01:44:20.848Z,11.24
2019-03-10T01:45:20.869Z,11.24
2019-03-10T01:46:20.853Z,11.22
2019-03-10T01:47:20.861Z,11.21
2019-03-10T01:48:20.859Z,11.2
2019-03-10T01:49:20.850Z,11.21
2019-03-10T01:50:20.849Z,11.2
2019-03-10T01:51:20.855Z,11.17
2019-03-10T01:52:20.861Z,11.18
2019-03-10T01:53:26.141Z,11.2
2019-03-10T01:54:21.096Z,11.18
2019-03-10T01:55:20.876Z,11.15
2019-03-10T01:56:20.870Z,11.17
2019-03-10T01:57:20.844Z,11.14
2019-03-10T01:58:20.838Z,11.15
2019-03-10T01:59:20.907Z,11.15
2019-03-10T02:00:20.867Z,11.12
2019-03-10T02:01:20.823Z,11.12
2019-03-10T02:02:26.128Z,11.12
2019-03-10T02:03:20.835Z,11.12
2019-03-10T02:04:20.823Z,11.12
2019-03-10T02:05:20.826Z,11.11
2019-03-10T02:06:20.843Z,11.12
2019-03-10T02:07:20.863Z,11.11
2019-03-10T02:08:20.826Z,11.12
2019-03-10T02:09:20.834Z,11.11
2019-03-10T02:10:20.807Z,11.1
2019-03-10T02:11:20.828Z,11.12
2019-03-10T02:12:20.808Z,11.12
2019-03-10T02:13:20.834Z,11.15
2019-03-10T02:14:20.834Z,11.15
2019-03-10T02:15:20.829Z,11.17
2019-03-10T02:16:20.819Z,11.18
2019-03-10T02:17:20.835Z,11.17
2019-03-10T02:18:20.808Z,11.17
2019-03-10T02:19:20.815Z,11.15
2019-03-10T02:20:20.831Z,11.14
2019-03-10T02:21:20.810Z,11.15
2019-03-10T02:22:20.809Z,11.15
2019-03-10T02:23:20.808Z,11.14
2019-03-10T02:24:24.443Z,11.14
2019-03-10T02:25:20.858Z,11.14
2019-03-10T02:26:20.834Z,11.12
2019-03-10T02:27:20.821Z,11.11
2019-03-10T02:28:20.801Z,11.08
2019-03-10T02:29:20.882Z,11.11
2019-03-10T02:30:20.812Z,11.08
2019-03-10T02:31:20.792Z,11.07
2019-03-10T02:32:20.792Z,11.08
2019-03-10T02:33:20.791Z,11.06
2019-03-10T02:34:20.823Z,11.04
2019-03-10T02:35:20.784Z,11.03
2019-03-10T02:36:20.781Z,11.03
2019-03-10T02:37:20.788Z,11.01
2019-03-10T02:38:20.782Z,11
2019-03-10T02:39:20.788Z,10.99
2019-03-10T02:40:20.795Z,10.97
2019-03-10T02:41:20.786Z,10.97
2019-03-10T02:42:20.769Z,10.99
2019-03-10T02:43:20.797Z,10.94
2019-03-10T02:44:20.783Z,10.94
2019-03-10T02:45:20.796Z,10.96
2019-03-10T02:46:20.784Z,10.96
2019-03-10T02:47:22.223Z,10.93
2019-03-10T02:48:20.784Z,10.92
2019-03-10T02:49:20.761Z,10.9
2019-03-10T02:50:20.798Z,10.92
2019-03-10T02:51:20.906Z,10.89
2019-03-10T02:52:20.781Z,10.9
2019-03-10T02:53:20.812Z,10.89
2019-03-10T02:54:20.795Z,10.87
2019-03-10T02:55:20.808Z,10.86
2019-03-10T02:56:20.784Z,10.86
2019-03-10T02:57:20.791Z,10.84
2019-03-10T02:58:20.803Z,10.84
2019-03-10T02:59:20.768Z,10.8
2019-03-10T03:00:20.758Z,10.82
2019-03-10T03:01:20.767Z,10.76
2019-03-10T03:02:20.779Z,10.78
2019-03-10T03:03:20.741Z,10.78
2019-03-10T03:04:20.784Z,10.78
2019-03-10T03:05:20.761Z,10.73
2019-03-10T03:06:20.757Z,10.72
2019-03-10T03:07:20.754Z,10.71
2019-03-10T03:08:20.813Z,10.76
2019-03-10T03:09:20.763Z,10.71
2019-03-10T03:10:20.727Z,10.73
2019-03-10T03:11:20.733Z,10.72
2019-03-10T03:12:20.746Z,10.71
2019-03-10T03:13:20.763Z,10.71
2019-03-10T03:14:20.760Z,10.69
2019-03-10T03:15:20.725Z,10.71
2019-03-10T03:16:20.738Z,10.71
2019-03-10T03:17:20.720Z,10.71
2019-03-10T03:18:20.751Z,10.71
2019-03-10T03:19:20.720Z,10.69
2019-03-10T03:20:20.794Z,10.71
2019-03-10T03:21:20.756Z,10.69
2019-03-10T03:22:20.755Z,10.71
2019-03-10T03:23:20.716Z,10.68
2019-03-10T03:24:20.754Z,10.66
2019-03-10T03:25:20.725Z,10.66
2019-03-10T03:26:20.744Z,10.66
2019-03-10T03:27:20.708Z,10.66
2019-03-10T03:28:20.764Z,10.66
2019-03-10T03:29:20.744Z,10.65
2019-03-10T03:30:20.734Z,10.64
2019-03-10T03:31:20.710Z,10.62
2019-03-10T03:32:20.734Z,10.64
2019-03-10T03:33:20.756Z,10.64
2019-03-10T03:34:20.739Z,10.61
2019-03-10T03:35:20.720Z,10.61
2019-03-10T03:36:20.729Z,10.62
2019-03-10T03:37:20.773Z,10.61
2019-03-10T03:38:20.731Z,10.59
2019-03-10T03:39:20.711Z,10.61
2019-03-10T03:40:20.732Z,10.61
2019-03-10T03:41:20.718Z,10.58
2019-03-10T03:42:20.718Z,10.59
2019-03-10T03:43:20.686Z,10.58
2019-03-10T03:44:20.737Z,10.56
2019-03-10T03:45:20.706Z,10.55
2019-03-10T03:46:20.740Z,10.56
2019-03-10T03:47:20.723Z,10.52
2019-03-10T03:48:20.697Z,10.52
2019-03-10T03:49:20.685Z,10.51
2019-03-10T03:50:20.688Z,10.49
2019-03-10T03:51:20.714Z,10.49
2019-03-10T03:52:20.980Z,10.51
2019-03-10T03:53:20.724Z,10.52
2019-03-10T03:54:20.706Z,10.51
2019-03-10T03:55:20.677Z,10.52
2019-03-10T03:56:20.679Z,10.53
2019-03-10T03:57:20.682Z,10.51
2019-03-10T03:58:20.678Z,10.52
2019-03-10T03:59:20.671Z,10.49
2019-03-10T04:00:20.698Z,10.47
2019-03-10T04:01:20.680Z,10.47
2019-03-10T04:02:20.677Z,10.47
2019-03-10T04:03:20.676Z,10.45
2019-03-10T04:04:20.663Z,10.47
2019-03-10T04:05:20.682Z,10.44
2019-03-10T04:06:20.668Z,10.44
2019-03-10T04:07:20.698Z,10.39
2019-03-10T04:08:20.676Z,10.41
2019-03-10T04:09:20.692Z,10.38
2019-03-10T04:10:20.664Z,10.39
2019-03-10T04:11:20.654Z,10.37
2019-03-10T04:12:20.652Z,10.37
2019-03-10T04:13:20.864Z,10.37
2019-03-10T04:14:20.924Z,10.35
2019-03-10T04:15:20.641Z,10.31
2019-03-10T04:16:20.705Z,10.27
2019-03-10T04:17:20.670Z,10.25
2019-03-10T04:18:20.657Z,10.27
2019-03-10T04:19:20.650Z,10.25
2019-03-10T04:20:20.646Z,10.24
2019-03-10T04:21:20.625Z,10.24
2019-03-10T04:22:20.629Z,10.23
2019-03-10T04:23:20.655Z,10.21
2019-03-10T04:24:20.646Z,10.19
2019-03-10T04:25:20.633Z,10.19
2019-03-10T04:26:20.648Z,10.17
2019-03-10T04:27:20.649Z,10.2
2019-03-10T04:28:20.629Z,10.16
2019-03-10T04:29:22.027Z,10.14
2019-03-10T04:30:20.627Z,10.16
2019-03-10T04:31:20.645Z,10.13
2019-03-10T04:32:20.616Z,10.1
2019-03-10T04:33:20.622Z,10.09
2019-03-10T04:34:20.635Z,10.1
2019-03-10T04:35:20.795Z,10.09
2019-03-10T04:36:20.650Z,10.04
2019-03-10T04:37:20.626Z,10.03
2019-03-10T04:38:20.639Z,10.02
2019-03-10T04:39:20.647Z,10
2019-03-10T04:40:20.649Z,10.02
2019-03-10T04:41:20.615Z,10.02
2019-03-10T04:42:20.634Z,9.99
2019-03-10T04:43:20.717Z,9.99
2019-03-10T04:44:20.609Z,9.97
2019-03-10T04:45:20.635Z,9.97
2019-03-10T04:46:20.613Z,9.94
2019-03-10T04:47:20.605Z,9.94
2019-03-10T04:48:20.604Z,9.93
2019-03-10T04:49:20.619Z,9.9
2019-03-10T04:50:20.595Z,9.9
2019-03-10T04:51:20.603Z,9.88
2019-03-10T04:52:20.609Z,9.89
2019-03-10T04:53:20.617Z,9.86
2019-03-10T04:54:20.609Z,9.89
2019-03-10T04:55:20.635Z,9.88
2019-03-10T04:56:20.607Z,9.86
2019-03-10T04:57:20.597Z,9.86
2019-03-10T04:58:20.600Z,9.83
2019-03-10T04:59:20.579Z,9.82
2019-03-10T05:00:20.882Z,9.79
2019-03-10T05:01:20.611Z,9.78
2019-03-10T05:02:20.616Z,9.78
2019-03-10T05:03:20.599Z,9.78
2019-03-10T05:04:20.610Z,9.73
2019-03-10T05:05:20.605Z,9.73
2019-03-10T05:06:20.760Z,9.7
2019-03-10T05:07:20.751Z,9.75
2019-03-10T05:08:20.575Z,9.72
2019-03-10T05:09:20.585Z,9.72
2019-03-10T05:10:20.575Z,9.73
2019-03-10T05:11:20.568Z,9.7
2019-03-10T05:12:20.570Z,9.7
2019-03-10T05:13:20.574Z,9.7
2019-03-10T05:14:20.566Z,9.68
2019-03-10T05:15:20.610Z,9.66
2019-03-10T05:16:20.679Z,9.68
2019-03-10T05:17:20.570Z,9.68
2019-03-10T05:18:20.577Z,9.66
2019-03-10T05:19:20.560Z,9.65
2019-03-10T05:20:20.620Z,9.66
2019-03-10T05:21:20.585Z,9.63
2019-03-10T05:22:20.555Z,9.65
2019-03-10T05:23:20.561Z,9.63
2019-03-10T05:24:20.614Z,9.61
2019-03-10T05:25:20.545Z,9.63
2019-03-10T05:26:20.573Z,9.62
2019-03-10T05:27:20.544Z,9.61
2019-03-10T05:28:20.646Z,9.58
2019-03-10T05:29:20.577Z,9.57
2019-03-10T05:30:20.568Z,9.54
2019-03-10T05:31:20.646Z,9.57
2019-03-10T05:32:20.556Z,9.57
2019-03-10T05:33:20.551Z,9.55
2019-03-10T05:34:20.552Z,9.58
2019-03-10T05:35:20.561Z,9.55
2019-03-10T05:36:20.543Z,9.57
2019-03-10T05:37:20.538Z,9.58
2019-03-10T05:38:20.547Z,9.55
2019-03-10T05:39:20.532Z,9.59
2019-03-10T05:40:20.538Z,9.55
2019-03-10T05:41:20.539Z,9.55
2019-03-10T05:42:20.569Z,9.49
2019-03-10T05:43:20.545Z,9.49
2019-03-10T05:44:20.581Z,9.51
2019-03-10T05:45:20.536Z,9.51
2019-03-10T05:46:20.541Z,9.51
2019-03-10T05:47:20.526Z,9.51
2019-03-10T05:48:20.529Z,9.51
2019-03-10T05:49:20.551Z,9.49
2019-03-10T05:50:20.534Z,9.48
2019-03-10T05:51:20.529Z,9.49
2019-03-10T05:52:20.520Z,9.48
2019-03-10T05:53:20.525Z,9.48
2019-03-10T05:54:20.549Z,9.45
2019-03-10T05:55:20.546Z,9.45
2019-03-10T05:56:20.498Z,9.45
2019-03-10T05:57:20.524Z,9.45
2019-03-10T05:58:20.509Z,9.44
2019-03-10T05:59:20.535Z,9.44
2019-03-10T06:00:20.560Z,9.45
2019-03-10T06:01:20.517Z,9.4
2019-03-10T06:02:20.513Z,9.41
2019-03-10T06:03:20.519Z,9.44
2019-03-10T06:04:20.500Z,9.44
2019-03-10T06:05:20.523Z,9.41
2019-03-10T06:06:20.529Z,9.4
2019-03-10T06:07:20.492Z,9.4
2019-03-10T06:08:20.570Z,9.38
2019-03-10T06:09:20.506Z,9.37
2019-03-10T06:10:20.506Z,9.37
2019-03-10T06:11:20.571Z,9.35
2019-03-10T06:12:20.570Z,9.37
2019-03-10T06:13:20.508Z,9.35
2019-03-10T06:14:20.539Z,9.35
2019-03-10T06:15:20.569Z,9.37
2019-03-10T06:16:20.505Z,9.34
2019-03-10T06:17:21.769Z,9.33
2019-03-10T06:18:20.486Z,9.3
2019-03-10T06:19:20.653Z,9.3
2019-03-10T06:20:20.492Z,9.27
2019-03-10T06:21:20.483Z,9.29
2019-03-10T06:22:20.538Z,9.3
2019-03-10T06:23:20.513Z,9.31
2019-03-10T06:24:20.486Z,9.29
2019-03-10T06:25:20.497Z,9.29
2019-03-10T06:26:20.476Z,9.29
2019-03-10T06:27:20.488Z,9.27
2019-03-10T06:28:20.501Z,9.24
2019-03-10T06:29:20.514Z,9.26
2019-03-10T06:30:20.466Z,9.24
2019-03-10T06:31:20.531Z,9.29
2019-03-10T06:32:20.475Z,9.26
2019-03-10T06:33:20.590Z,9.27
2019-03-10T06:34:20.689Z,9.24
2019-03-10T06:35:20.466Z,9.21
2019-03-10T06:36:20.489Z,9.26
2019-03-10T06:37:20.561Z,9.24
2019-03-10T06:38:20.515Z,9.27
2019-03-10T06:39:20.464Z,9.24
2019-03-10T06:40:32.744Z,9.24
2019-03-10T06:41:20.494Z,9.26
2019-03-10T06:42:20.465Z,9.23
2019-03-10T06:43:20.459Z,9.24
2019-03-10T06:44:21.314Z,9.26
2019-03-10T06:45:20.448Z,9.24
2019-03-10T06:46:20.472Z,9.26
2019-03-10T06:47:20.438Z,9.27
2019-03-10T06:48:20.454Z,9.23
2019-03-10T06:49:20.445Z,9.24
2019-03-10T06:50:20.480Z,9.24
2019-03-10T06:51:20.443Z,9.23
2019-03-10T06:52:20.457Z,9.24
2019-03-10T06:53:20.436Z,9.26
2019-03-10T06:54:20.453Z,9.24
2019-03-10T06:55:20.502Z,9.27
2019-03-10T06:56:20.439Z,9.26
2019-03-10T06:57:20.450Z,9.24
2019-03-10T06:58:20.434Z,9.24
2019-03-10T06:59:20.440Z,9.24
2019-03-10T07:00:20.441Z,9.23
2019-03-10T07:01:20.463Z,9.21
2019-03-10T07:02:20.477Z,9.23
2019-03-10T07:03:20.447Z,9.24
2019-03-10T07:04:20.441Z,9.26
2019-03-10T07:05:20.445Z,9.26
2019-03-10T07:06:20.420Z,9.26
2019-03-10T07:07:20.429Z,9.23
2019-03-10T07:08:20.428Z,9.26
2019-03-10T07:09:20.457Z,9.27
2019-03-10T07:10:20.429Z,9.3
2019-03-10T07:11:20.410Z,9.26
2019-03-10T07:12:20.410Z,9.27
2019-03-10T07:13:20.423Z,9.27
2019-03-10T07:14:20.409Z,9.24
2019-03-10T07:15:20.422Z,9.27
2019-03-10T07:16:20.409Z,9.27
2019-03-10T07:17:20.656Z,9.3
2019-03-10T07:18:20.430Z,9.3
2019-03-10T07:19:20.425Z,9.3
2019-03-10T07:20:20.398Z,9.34
2019-03-10T07:21:20.428Z,9.34
2019-03-10T07:22:20.410Z,9.33
2019-03-10T07:23:20.404Z,9.34
2019-03-10T07:24:20.426Z,9.37
2019-03-10T07:25:20.440Z,9.37
2019-03-10T07:26:20.426Z,9.38
2019-03-10T07:27:20.420Z,9.4
2019-03-10T07:28:20.388Z,9.4
2019-03-10T07:29:20.390Z,9.42
2019-03-10T07:30:20.390Z,9.42
2019-03-10T07:31:20.393Z,9.44
2019-03-10T07:32:20.391Z,9.47
2019-03-10T07:33:20.453Z,9.49
2019-03-10T07:34:20.427Z,9.49
2019-03-10T07:35:20.392Z,9.52
2019-03-10T07:36:20.386Z,9.58
2019-03-10T07:37:20.379Z,9.59
2019-03-10T07:38:20.369Z,9.61
2019-03-10T07:39:20.419Z,9.66
2019-03-10T07:40:20.373Z,9.69
2019-03-10T07:41:20.406Z,9.75
2019-03-10T07:42:20.438Z,9.78
2019-03-10T07:43:20.387Z,9.82
2019-03-10T07:44:20.385Z,9.89
2019-03-10T07:45:20.370Z,9.9
2019-03-10T07:46:20.372Z,9.92
2019-03-10T07:47:20.429Z,9.97
2019-03-10T07:48:20.373Z,10
2019-03-10T07:49:20.434Z,10.06
2019-03-10T07:50:20.379Z,10.04
2019-03-10T07:51:20.364Z,10.07
2019-03-10T07:52:20.971Z,10.1
2019-03-10T07:53:20.352Z,10.1
2019-03-10T07:54:20.407Z,10.13
2019-03-10T07:55:20.333Z,10.16
2019-03-10T07:56:20.357Z,10.21
2019-03-10T07:57:20.356Z,10.21
2019-03-10T07:58:20.348Z,10.24
2019-03-10T07:59:20.355Z,10.23
2019-03-10T08:00:20.349Z,10.3
2019-03-10T08:01:20.440Z,10.31
2019-03-10T08:02:20.338Z,10.32
2019-03-10T08:03:20.350Z,10.37
2019-03-10T08:04:20.346Z,10.35
2019-03-10T08:05:20.374Z,10.35
2019-03-10T08:06:20.343Z,10.35
2019-03-10T08:07:20.374Z,10.39
2019-03-10T08:08:20.383Z,10.39
2019-03-10T08:09:20.373Z,10.38
2019-03-10T08:10:20.375Z,10.47
2019-03-10T08:11:20.344Z,10.48
2019-03-10T08:12:20.341Z,10.47
2019-03-10T08:13:20.359Z,10.49
2019-03-10T08:14:20.366Z,10.52
2019-03-10T08:15:20.432Z,10.53
2019-03-10T08:16:20.354Z,10.55
2019-03-10T08:17:20.398Z,10.56
2019-03-10T08:18:20.352Z,10.61
2019-03-10T08:19:20.329Z,10.66
2019-03-10T08:20:20.328Z,10.66
2019-03-10T08:21:20.346Z,10.68
2019-03-10T08:22:20.507Z,10.69
2019-03-10T08:23:20.372Z,10.71
2019-03-10T08:24:20.351Z,10.72
2019-03-10T08:25:20.371Z,10.76
2019-03-10T08:26:20.325Z,10.75
2019-03-10T08:27:20.332Z,10.8
2019-03-10T08:28:20.709Z,10.8
2019-03-10T08:29:20.320Z,10.89
2019-03-10T08:30:20.309Z,10.9
2019-03-10T08:31:20.312Z,10.9
2019-03-10T08:32:20.326Z,10.92
2019-03-10T08:33:20.336Z,10.93
2019-03-10T08:34:20.342Z,10.92
2019-03-10T08:35:20.312Z,10.97
2019-03-10T08:36:20.301Z,10.99
2019-03-10T08:37:20.297Z,10.97
2019-03-10T08:38:20.317Z,10.94
2019-03-10T08:39:20.312Z,10.99
2019-03-10T08:40:20.292Z,11.04
2019-03-10T08:41:20.310Z,11.04
2019-03-10T08:42:21.063Z,11.04
2019-03-10T08:43:20.287Z,11.04
2019-03-10T08:44:20.349Z,11.06
2019-03-10T08:45:20.295Z,11.08
2019-03-10T08:46:20.288Z,11.11
2019-03-10T08:47:20.337Z,11.11
2019-03-10T08:48:20.302Z,11.17
2019-03-10T08:49:20.298Z,11.17
2019-03-10T08:50:20.300Z,11.22
2019-03-10T08:51:20.279Z,11.22
2019-03-10T08:52:20.305Z,11.27
2019-03-10T08:53:20.291Z,11.25
2019-03-10T08:54:20.275Z,11.27
2019-03-10T08:55:20.274Z,11.3
2019-03-10T08:56:20.278Z,11.35
2019-03-10T08:57:20.278Z,11.41
2019-03-10T08:58:20.302Z,11.38
2019-03-10T08:59:20.303Z,11.41
2019-03-10T09:00:20.268Z,11.41
2019-03-10T09:01:20.281Z,11.41
2019-03-10T09:02:20.288Z,11.44
2019-03-10T09:03:20.263Z,11.42
2019-03-10T09:04:20.257Z,11.45
2019-03-10T09:05:20.275Z,11.48
2019-03-10T09:06:20.566Z,11.52
2019-03-10T09:07:20.247Z,11.58
2019-03-10T09:08:20.289Z,11.59
2019-03-10T09:09:20.334Z,11.62
2019-03-10T09:10:20.265Z,11.69
2019-03-10T09:11:20.249Z,11.69
2019-03-10T09:12:20.267Z,11.82
2019-03-10T09:13:20.245Z,11.8
2019-03-10T09:14:20.266Z,11.8
2019-03-10T09:15:20.284Z,11.82
2019-03-10T09:16:20.236Z,11.83
2019-03-10T09:17:20.236Z,11.83
2019-03-10T09:18:20.323Z,11.89
2019-03-10T09:19:20.263Z,11.89
2019-03-10T09:20:20.254Z,11.93
2019-03-10T09:21:20.243Z,11.96
2019-03-10T09:22:20.280Z,11.96
2019-03-10T09:23:20.247Z,11.94
2019-03-10T09:24:20.275Z,11.94
2019-03-10T09:25:20.244Z,11.96
2019-03-10T09:26:20.249Z,11.96
2019-03-10T09:27:20.262Z,11.98
2019-03-10T09:28:20.432Z,12
2019-03-10T09:29:20.258Z,12.01
2019-03-10T09:30:20.236Z,12.03
2019-03-10T09:31:20.242Z,12.05
2019-03-10T09:32:20.263Z,12.04
2019-03-10T09:33:20.325Z,12.07
2019-03-10T09:34:20.268Z,12.08
2019-03-10T09:35:20.244Z,12.04
2019-03-10T09:36:20.232Z,12.05
2019-03-10T09:37:20.247Z,12.05
2019-03-10T09:38:20.260Z,12.07
2019-03-10T09:39:20.284Z,12.08
2019-03-10T09:40:20.206Z,12.07
2019-03-10T09:41:20.215Z,12.08
2019-03-10T09:42:20.215Z,12.1
2019-03-10T09:43:20.216Z,12.08
2019-03-10T09:44:20.255Z,12.14
2019-03-10T09:45:20.253Z,12.13
2019-03-10T09:46:20.221Z,12.16
2019-03-10T09:47:20.249Z,12.17
2019-03-10T09:48:20.212Z,12.18
2019-03-10T09:49:20.442Z,12.18
2019-03-10T09:50:20.295Z,12.21
2019-03-10T09:51:20.223Z,12.24
2019-03-10T09:52:20.245Z,12.29
2019-03-10T09:53:20.295Z,12.31
2019-03-10T09:54:20.218Z,12.34
2019-03-10T09:55:20.210Z,12.32
2019-03-10T09:56:20.214Z,12.38
2019-03-10T09:57:20.247Z,12.39
2019-03-10T09:58:20.219Z,12.44
2019-03-10T09:59:20.216Z,12.49
2019-03-10T10:00:20.240Z,12.53
2019-03-10T10:01:20.298Z,12.57
2019-03-10T10:02:20.331Z,12.56
2019-03-10T10:03:20.250Z,12.56
2019-03-10T10:04:20.220Z,12.53
2019-03-10T10:05:20.169Z,12.6
2019-03-10T10:06:20.210Z,12.62
2019-03-10T10:07:20.191Z,12.57
2019-03-10T10:08:20.195Z,12.56
2019-03-10T10:09:20.232Z,12.6
2019-03-10T10:10:20.198Z,12.59
2019-03-10T10:11:20.223Z,12.59
2019-03-10T10:12:20.624Z,12.59
2019-03-10T10:13:20.218Z,12.63
2019-03-10T10:14:20.215Z,12.65
2019-03-10T10:15:20.197Z,12.67
2019-03-10T10:16:20.206Z,12.67
2019-03-10T10:17:20.205Z,12.72
2019-03-10T10:18:20.207Z,12.76
2019-03-10T10:19:20.174Z,12.76
2019-03-10T10:20:20.205Z,12.77
2019-03-10T10:21:20.180Z,12.8
2019-03-10T10:22:20.215Z,12.82
2019-03-10T10:23:20.193Z,12.87
2019-03-10T10:24:20.186Z,12.88
2019-03-10T10:25:20.189Z,12.9
2019-03-10T10:26:20.168Z,12.86
2019-03-10T10:27:20.423Z,12.9
2019-03-10T10:28:20.369Z,12.9
2019-03-10T10:29:20.163Z,12.88
2019-03-10T10:30:20.302Z,12.9
2019-03-10T10:31:20.264Z,12.9
2019-03-10T10:32:20.277Z,12.9
2019-03-10T10:33:20.416Z,12.96
2019-03-10T10:34:20.193Z,12.97
2019-03-10T10:35:20.147Z,13
2019-03-10T10:36:20.159Z,13.04
2019-03-10T10:37:20.176Z,13.04
2019-03-10T10:38:20.154Z,13.04
2019-03-10T10:39:20.215Z,13.1
2019-03-10T10:40:20.168Z,13.1
2019-03-10T10:41:20.185Z,13.14
2019-03-10T10:42:20.145Z,13.11
2019-03-10T10:43:20.130Z,13.11
2019-03-10T10:44:20.131Z,13.22
2019-03-10T10:45:20.155Z,13.27
2019-03-10T10:46:20.152Z,13.25
2019-03-10T10:47:20.160Z,13.27
2019-03-10T10:48:20.129Z,13.28
2019-03-10T10:49:20.177Z,13.32
2019-03-10T10:50:20.272Z,13.31
2019-03-10T10:51:20.167Z,13.32
2019-03-10T10:52:20.314Z,13.32
2019-03-10T10:53:21.773Z,13.29
2019-03-10T10:54:20.192Z,13.27
2019-03-10T10:55:20.366Z,13.28
2019-03-10T10:56:20.150Z,13.27
2019-03-10T10:57:20.237Z,13.29
2019-03-10T10:58:20.153Z,13.31
2019-03-10T10:59:20.135Z,13.28
2019-03-10T11:00:20.180Z,13.24
2019-03-10T11:01:20.140Z,13.22
2019-03-10T11:02:20.210Z,13.22
2019-03-10T11:03:20.159Z,13.21
2019-03-10T11:04:20.136Z,13.21
2019-03-10T11:05:20.259Z,13.21
2019-03-10T11:06:20.178Z,13.22
2019-03-10T11:07:20.119Z,13.24
2019-03-10T11:08:20.496Z,13.24
2019-03-10T11:09:20.141Z,13.22
2019-03-10T11:10:20.136Z,13.22
2019-03-10T11:11:20.136Z,13.25
2019-03-10T11:12:20.179Z,13.25
2019-03-10T11:13:20.162Z,13.29
2019-03-10T11:14:20.127Z,13.29
2019-03-10T11:15:20.134Z,13.34
2019-03-10T11:16:20.739Z,13.36
2019-03-10T11:17:20.186Z,13.35
2019-03-10T11:18:20.135Z,13.35
2019-03-10T11:19:20.108Z,13.39
2019-03-10T11:20:20.112Z,13.43
2019-03-10T11:21:20.096Z,13.43
2019-03-10T11:22:20.118Z,13.45
2019-03-10T11:23:20.090Z,13.43
2019-03-10T11:24:20.105Z,13.42
2019-03-10T11:25:20.078Z,13.42
2019-03-10T11:26:20.075Z,13.43
2019-03-10T11:27:20.127Z,13.42
2019-03-10T11:28:20.087Z,13.41
2019-03-10T11:29:20.198Z,13.35
2019-03-10T11:30:20.069Z,13.35
2019-03-10T11:31:20.162Z,13.35
2019-03-10T11:32:20.094Z,13.36
2019-03-10T11:33:20.176Z,13.38
2019-03-10T11:34:20.101Z,13.36
2019-03-10T11:35:20.074Z,13.32
2019-03-10T11:36:20.161Z,13.32
2019-03-10T11:37:20.390Z,13.34
2019-03-10T11:38:20.163Z,13.28
2019-03-10T11:39:20.118Z,13.28
2019-03-10T11:40:20.098Z,13.29
2019-03-10T11:41:20.109Z,13.29
2019-03-10T11:42:20.082Z,13.29
2019-03-10T11:43:23.059Z,13.29
2019-03-10T11:44:20.141Z,13.32
2019-03-10T11:45:20.088Z,13.32
2019-03-10T11:46:20.089Z,13.31
2019-03-10T11:47:20.077Z,13.31
2019-03-10T11:48:20.062Z,13.32
2019-03-10T11:49:20.107Z,13.34
2019-03-10T11:50:20.074Z,13.34
2019-03-10T11:51:20.100Z,13.31
2019-03-10T11:52:20.057Z,13.34
2019-03-10T11:53:20.055Z,13.34
2019-03-10T11:54:20.104Z,13.36
2019-03-10T11:55:20.247Z,13.35
2019-03-10T11:56:20.209Z,13.34
2019-03-10T11:57:20.108Z,13.34
2019-03-10T11:58:20.144Z,13.32
2019-03-10T11:59:20.090Z,13.31
2019-03-10T12:00:20.176Z,13.31
2019-03-10T12:01:20.046Z,13.32
2019-03-10T12:02:20.048Z,13.31
2019-03-10T12:03:20.038Z,13.31
2019-03-10T12:04:20.046Z,13.35
2019-03-10T12:05:20.035Z,13.34
2019-03-10T12:06:20.063Z,13.35
2019-03-10T12:07:20.060Z,13.36
2019-03-10T12:08:20.041Z,13.38
2019-03-10T12:09:20.100Z,13.42
2019-03-10T12:10:21.913Z,13.43
2019-03-10T12:11:20.068Z,13.46
2019-03-10T12:12:20.049Z,13.49
2019-03-10T12:13:20.037Z,13.47
2019-03-10T12:14:20.026Z,13.52
2019-03-10T12:15:20.064Z,13.56
2019-03-10T12:16:20.022Z,13.57
2019-03-10T12:17:20.097Z,13.59
2019-03-10T12:18:20.050Z,13.6
2019-03-10T12:19:20.015Z,13.64
2019-03-10T12:20:20.028Z,13.62
2019-03-10T12:21:20.363Z,13.66
2019-03-10T12:22:20.060Z,13.7
2019-03-10T12:23:20.049Z,13.67
2019-03-10T12:24:20.052Z,13.72
2019-03-10T12:25:20.023Z,13.76
2019-03-10T12:26:20.017Z,13.83
2019-03-10T12:27:20.078Z,13.87
2019-03-10T12:28:20.012Z,13.96
2019-03-10T12:29:20.063Z,14.01
2019-03-10T12:30:19.992Z,14.07
2019-03-10T12:31:20.028Z,14.11
2019-03-10T12:32:20.010Z,14.15
2019-03-10T12:33:20.190Z,14.25
2019-03-10T12:34:20.002Z,14.36
2019-03-10T12:35:20.001Z,14.45
2019-03-10T12:36:20.007Z,14.48
2019-03-10T12:37:20.015Z,14.48
2019-03-10T12:38:20.012Z,14.4
2019-03-10T12:39:20.031Z,14.43
2019-03-10T12:40:20.952Z,14.49
2019-03-10T12:41:20.015Z,14.56
2019-03-10T12:42:20.105Z,14.58
2019-03-10T12:43:19.989Z,14.55
2019-03-10T12:44:19.976Z,14.53
2019-03-10T12:45:19.986Z,14.53
2019-03-10T12:46:19.986Z,14.59
2019-03-10T12:47:19.970Z,14.67
2019-03-10T12:48:19.979Z,14.79
2019-03-10T12:49:19.975Z,14.79
2019-03-10T12:50:20.019Z,14.73
2019-03-10T12:51:19.984Z,14.77
2019-03-10T12:52:20.004Z,14.87
2019-03-10T12:53:19.975Z,14.88
2019-03-10T12:54:19.972Z,14.88
2019-03-10T12:55:19.954Z,14.84
2019-03-10T12:56:20.049Z,14.86
2019-03-10T12:57:19.961Z,14.81
2019-03-10T12:58:19.957Z,14.87
2019-03-10T12:59:19.961Z,14.94
2019-03-10T13:00:19.962Z,14.95
2019-03-10T13:01:19.962Z,14.98